createdAt,value
2022-11-15T00:00:43.149Z,13.48
2022-11-15T00:01:44.098Z,13.77
2022-11-15T00:02:45.270Z,14.18
2022-11-15T00:03:46.340Z,13.55
2022-11-15T00:04:47.517Z,14.07
2022-11-15T00:05:48.371Z,14.40
2022-11-15T00:06:49.636Z,13.45
2022-11-15T00:07:57.762Z,13.07
2022-11-15T00:08:59.422Z,13.85
2022-11-15T00:10:00.462Z,13.70
2022-11-15T00:11:02.767Z,14.93
2022-11-15T00:12:03.870Z,12.57
2022-11-15T00:13:06.475Z,13.20
2022-11-15T00:14:07.487Z,13.13
2022-11-15T00:15:08.906Z,13.77
2022-11-15T00:16:10.000Z,13.32
2022-11-15T00:17:11.193Z,12.88
2022-11-15T00:18:12.797Z,12.75
2022-11-15T00:19:14.042Z,13.70
2022-11-15T00:20:15.025Z,13.05
2022-11-15T00:21:16.405Z,11.95
2022-11-15T00:22:17.337Z,12.02
2022-11-15T00:23:18.663Z,12.97
2022-11-15T00:24:19.516Z,11.68
2022-11-15T00:25:20.703Z,12.95
2022-11-15T00:26:21.558Z,12.43
2022-11-15T00:27:22.746Z,11.13
2022-11-15T00:28:24.575Z,11.15
2022-11-15T00:29:25.739Z,12.80
2022-11-15T00:30:26.651Z,11.57
2022-11-15T00:31:27.837Z,12.68
2022-11-15T00:32:31.394Z,13.35
2022-11-15T00:33:33.118Z,12.68
2022-11-15T00:35:35.450Z,12.40
2022-11-15T00:36:36.382Z,12.07
2022-11-15T00:37:37.578Z,12.50
2022-11-15T00:38:39.823Z,12.15
2022-11-15T00:39:40.997Z,11.13
2022-11-15T00:40:41.842Z,13.40
2022-11-15T00:41:42.992Z,10.43
2022-11-15T00:42:43.895Z,12.32
2022-11-15T00:43:45.734Z,12.13
2022-11-15T00:44:46.578Z,12.45
2022-11-15T00:45:47.715Z,11.20
2022-11-15T00:46:48.561Z,10.57
2022-11-15T00:47:49.795Z,10.98
2022-11-15T00:48:50.656Z,11.30
2022-11-15T00:49:51.787Z,10.67
2022-11-15T00:50:52.627Z,11.27
2022-11-15T00:51:53.746Z,11.65
2022-11-15T00:52:54.716Z,10.98
2022-11-15T00:53:55.934Z,12.17
2022-11-15T00:54:56.812Z,11.13
2022-11-15T00:55:58.064Z,11.52
2022-11-15T00:56:58.963Z,10.77
2022-11-15T00:58:00.217Z,12.32
2022-11-15T00:59:01.813Z,12.32
2022-11-15T01:00:03.418Z,11.65
2022-11-15T01:01:08.325Z,11.35
2022-11-15T01:02:09.647Z,10.82
2022-11-15T01:03:10.650Z,11.50
2022-11-15T01:04:11.879Z,11.43
2022-11-15T01:05:12.781Z,10.88
2022-11-15T01:06:14.045Z,11.90
2022-11-15T01:07:15.004Z,11.00
2022-11-15T01:08:17.032Z,12.93
2022-11-15T01:10:19.138Z,11.48
2022-11-15T01:11:20.038Z,11.80
2022-11-15T01:12:21.277Z,11.30
2022-11-15T01:13:22.197Z,11.40
2022-11-15T01:14:25.600Z,11.38
2022-11-15T01:15:26.729Z,11.75
2022-11-15T01:16:27.993Z,11.63
2022-11-15T01:17:28.893Z,10.18
2022-11-15T01:18:30.156Z,10.47
2022-11-15T01:19:31.059Z,11.85
2022-11-15T01:20:32.280Z,12.10
2022-11-15T01:21:33.183Z,11.55
2022-11-15T01:22:34.492Z,9.10
2022-11-15T01:23:35.681Z,11.43
2022-11-15T01:24:37.052Z,11.32
2022-11-15T01:25:38.064Z,11.10
2022-11-15T01:26:39.320Z,11.07
2022-11-15T01:27:40.243Z,11.05
2022-11-15T01:28:42.013Z,10.40
2022-11-15T01:29:43.708Z,9.77
2022-11-15T01:30:44.985Z,10.02
2022-11-15T01:31:45.897Z,10.77
2022-11-15T01:32:47.151Z,10.85
2022-11-15T01:33:48.514Z,10.80
2022-11-15T01:34:49.742Z,10.38
2022-11-15T01:35:50.638Z,11.05
2022-11-15T01:36:52.071Z,10.70
2022-11-15T01:37:52.991Z,10.18
2022-11-15T01:38:54.372Z,8.77
2022-11-15T01:39:55.319Z,10.32
2022-11-15T01:40:56.536Z,10.57
2022-11-15T01:41:58.213Z,10.07
2022-11-15T01:42:59.097Z,8.60
2022-11-15T01:44:15.195Z,10.87
2022-11-15T01:45:16.835Z,11.02
2022-11-15T01:46:26.168Z,11.45
2022-11-15T01:47:29.402Z,11.70
2022-11-15T01:48:32.476Z,10.70
2022-11-15T01:49:35.601Z,11.38
2022-11-15T01:50:36.864Z,12.02
2022-11-15T01:51:38.001Z,11.43
2022-11-15T01:52:40.325Z,11.48
2022-11-15T01:53:42.193Z,12.30
2022-11-15T01:54:43.616Z,10.55
2022-11-15T01:55:44.747Z,11.93
2022-11-15T01:56:47.019Z,10.90
2022-11-15T01:57:49.368Z,10.48
2022-11-15T01:58:51.803Z,10.23
2022-11-15T01:59:52.963Z,11.38
2022-11-15T02:00:54.944Z,11.85
2022-11-15T02:02:57.059Z,11.45
2022-11-15T02:04:00.124Z,11.73
2022-11-15T02:05:01.437Z,11.40
2022-11-15T02:06:03.936Z,11.90
2022-11-15T02:07:05.976Z,11.10
2022-11-15T02:08:07.030Z,11.27
2022-11-15T02:09:08.266Z,11.13
2022-11-15T02:10:09.932Z,10.82
2022-11-15T02:11:11.186Z,12.35
2022-11-15T02:12:14.128Z,11.23
2022-11-15T02:13:15.621Z,11.55
2022-11-15T02:14:18.530Z,12.45
2022-11-15T02:15:19.973Z,12.25
2022-11-15T02:16:32.647Z,11.32
2022-11-15T02:17:43.703Z,10.68
2022-11-15T02:18:46.980Z,10.88
2022-11-15T02:20:00.482Z,11.05
2022-11-15T02:21:06.541Z,10.48
2022-11-15T02:22:14.170Z,9.85
2022-11-15T02:23:33.414Z,10.15
2022-11-15T02:24:50.026Z,10.40
2022-11-15T02:25:57.788Z,12.10
2022-11-15T02:27:19.369Z,10.45
2022-11-15T02:28:31.943Z,10.75
2022-11-15T02:29:42.390Z,11.60
2022-11-15T02:30:45.807Z,11.23
2022-11-15T02:31:48.851Z,11.27
2022-11-15T02:32:52.835Z,11.75
2022-11-15T02:33:56.632Z,11.52
2022-11-15T02:35:00.263Z,11.60
2022-11-15T02:36:02.256Z,11.55
2022-11-15T02:38:07.184Z,11.50
2022-11-15T02:39:11.238Z,10.18
2022-11-15T02:40:17.333Z,12.18
2022-11-15T02:41:22.373Z,12.35
2022-11-15T02:42:52.594Z,12.07
2022-11-15T02:43:57.097Z,12.80
2022-11-15T02:44:58.706Z,11.63
2022-11-15T02:46:03.769Z,12.30
2022-11-15T02:47:15.536Z,12.30
2022-11-15T02:48:17.076Z,13.02
2022-11-15T02:49:18.708Z,12.93
2022-11-15T02:50:21.326Z,11.50
2022-11-15T02:51:22.790Z,12.68
2022-11-15T02:52:25.659Z,13.20
2022-11-15T02:53:26.924Z,12.85
2022-11-15T02:54:31.514Z,12.75
2022-11-15T02:55:34.194Z,12.43
2022-11-15T02:56:35.168Z,13.02
2022-11-15T02:57:42.878Z,12.07
2022-11-15T02:58:57.777Z,13.13
2022-11-15T03:00:04.145Z,12.10
2022-11-15T03:01:11.866Z,12.50
2022-11-15T03:02:18.499Z,11.93
2022-11-15T03:03:29.896Z,12.18
2022-11-15T03:04:36.705Z,12.05
2022-11-15T03:05:39.405Z,13.65
2022-11-15T03:06:42.940Z,13.65
2022-11-15T03:07:47.156Z,12.05
2022-11-15T03:08:54.457Z,13.35
2022-11-15T03:09:57.893Z,13.73
2022-11-15T03:11:03.676Z,13.38
2022-11-15T03:12:07.555Z,12.43
2022-11-15T03:13:14.358Z,12.30
2022-11-15T03:14:21.306Z,13.20
2022-11-15T03:15:24.323Z,13.60
2022-11-15T03:16:29.289Z,13.38
2022-11-15T03:17:31.243Z,13.60
2022-11-15T03:19:36.321Z,14.25
2022-11-15T03:20:37.637Z,13.30
2022-11-15T03:21:40.009Z,13.57
2022-11-15T03:22:44.055Z,12.98
2022-11-15T03:23:45.608Z,13.75
2022-11-15T03:24:48.505Z,13.57
2022-11-15T03:25:50.990Z,13.27
2022-11-15T03:26:54.318Z,14.07
2022-11-15T03:27:57.692Z,14.27
2022-11-15T03:29:01.798Z,13.57
2022-11-15T03:30:04.742Z,12.82
2022-11-15T03:31:26.858Z,13.60
2022-11-15T03:32:30.290Z,14.00
2022-11-15T03:33:31.915Z,13.82
2022-11-15T03:34:35.783Z,13.50
2022-11-15T03:35:39.671Z,13.73
2022-11-15T03:36:40.999Z,14.40
2022-11-15T03:37:44.654Z,14.65
2022-11-15T03:38:46.094Z,13.45
2022-11-15T03:39:47.307Z,15.13
2022-11-15T03:40:51.642Z,15.10
2022-11-15T03:41:57.859Z,15.82
2022-11-15T03:43:01.440Z,15.40
2022-11-15T03:44:05.933Z,14.73
2022-11-15T03:45:11.304Z,14.77
2022-11-15T03:46:14.812Z,14.68
2022-11-15T03:47:17.796Z,14.93
2022-11-15T03:48:22.080Z,14.35
2022-11-15T03:49:24.896Z,17.10
2022-11-15T03:50:26.617Z,15.13
2022-11-15T03:51:27.568Z,16.52
2022-11-15T03:52:32.165Z,16.58
2022-11-15T03:53:33.422Z,16.35
2022-11-15T03:54:34.901Z,17.13
2022-11-15T03:55:35.878Z,15.07
2022-11-15T03:56:37.092Z,16.67
2022-11-15T03:57:38.073Z,17.73
2022-11-15T03:58:39.404Z,16.73
2022-11-15T03:59:40.465Z,15.93
2022-11-15T04:00:41.786Z,17.73
2022-11-15T04:01:42.788Z,16.38
2022-11-15T04:02:44.095Z,16.33
2022-11-15T04:03:45.807Z,15.70
2022-11-15T04:04:47.077Z,16.15
2022-11-15T04:05:48.013Z,17.95
2022-11-15T04:06:49.322Z,16.38
2022-11-15T04:07:50.247Z,15.38
2022-11-15T04:08:51.788Z,17.30
2022-11-15T04:10:04.452Z,17.20
2022-11-15T04:11:05.681Z,17.27
2022-11-15T04:12:06.633Z,18.27
2022-11-15T04:13:07.905Z,17.73
2022-11-15T04:14:08.848Z,17.05
2022-11-15T04:15:11.586Z,17.42
2022-11-15T04:16:12.548Z,16.70
2022-11-15T04:17:13.769Z,18.60
2022-11-15T04:18:14.673Z,18.40
2022-11-15T04:19:34.599Z,18.55
2022-11-15T04:20:53.860Z,18.27
2022-11-15T04:22:13.205Z,16.73
2022-11-15T04:23:33.723Z,18.17
2022-11-15T04:24:35.285Z,18.25
2022-11-15T04:25:36.257Z,17.98
2022-11-15T04:26:37.533Z,18.08
2022-11-15T04:27:38.425Z,16.85
2022-11-15T04:29:00.030Z,16.25
2022-11-15T04:30:01.128Z,17.38
2022-11-15T04:31:02.377Z,16.40
2022-11-15T04:32:03.488Z,17.58
2022-11-15T04:33:04.709Z,16.67
2022-11-15T04:34:05.638Z,17.77
2022-11-15T04:35:08.138Z,18.77
2022-11-15T04:36:27.124Z,18.35
2022-11-15T04:37:28.365Z,17.35
2022-11-15T04:38:29.206Z,18.23
2022-11-15T04:39:30.364Z,18.10
2022-11-15T04:40:31.337Z,17.70
2022-11-15T04:41:32.530Z,17.77
2022-11-15T04:42:33.374Z,17.15
2022-11-15T04:43:34.860Z,18.33
2022-11-15T04:44:35.907Z,17.67
2022-11-15T04:45:37.080Z,18.17
2022-11-15T04:46:37.922Z,18.13
2022-11-15T04:47:39.060Z,16.57
2022-11-15T04:48:40.328Z,16.92
2022-11-15T04:49:41.151Z,18.80
2022-11-15T04:50:43.066Z,17.83
2022-11-15T04:52:50.877Z,17.27
2022-11-15T04:53:51.741Z,18.35
2022-11-15T04:54:52.917Z,18.93
2022-11-15T04:55:54.065Z,18.17
2022-11-15T04:56:54.914Z,19.77
2022-11-15T04:58:00.190Z,19.70
2022-11-15T04:59:01.044Z,18.63
2022-11-15T05:00:03.310Z,18.07
2022-11-15T05:01:07.037Z,18.10
2022-11-15T05:02:08.240Z,17.40
2022-11-15T05:03:28.159Z,19.67
2022-11-15T05:04:29.006Z,17.85
2022-11-15T05:05:29.838Z,18.73
2022-11-15T05:06:31.917Z,20.00
2022-11-15T05:08:33.804Z,17.52
2022-11-15T05:09:34.671Z,15.98
2022-11-15T05:10:35.845Z,19.77
2022-11-15T05:11:36.737Z,19.17
2022-11-15T05:12:38.109Z,19.70
2022-11-15T05:13:38.939Z,18.92
2022-11-15T05:14:40.107Z,18.80
2022-11-15T05:15:41.032Z,17.73
2022-11-15T05:16:42.577Z,19.73
2022-11-15T05:17:43.427Z,20.00
2022-11-15T05:18:44.742Z,20.58
2022-11-15T05:19:45.608Z,19.58
2022-11-15T05:20:46.751Z,17.93
2022-11-15T05:21:48.300Z,20.25
2022-11-15T05:22:49.465Z,19.20
2022-11-15T05:23:50.322Z,20.25
2022-11-15T05:24:51.511Z,19.17
2022-11-15T05:25:52.355Z,19.17
2022-11-15T05:26:53.592Z,20.38
2022-11-15T05:27:54.452Z,18.83
2022-11-15T05:28:56.366Z,20.17
2022-11-15T05:29:57.215Z,19.15
2022-11-15T05:31:01.461Z,19.48
2022-11-15T05:32:03.822Z,18.77
2022-11-15T05:33:04.988Z,19.65
2022-11-15T05:34:06.499Z,20.30
2022-11-15T05:35:10.935Z,19.42
2022-11-15T05:36:15.153Z,18.42
2022-11-15T05:37:17.288Z,18.65
2022-11-15T05:38:18.109Z,18.40
2022-11-15T05:39:19.269Z,19.53
2022-11-15T05:40:20.172Z,19.88
2022-11-15T05:41:24.982Z,17.92
2022-11-15T05:42:27.216Z,19.33
2022-11-15T05:43:30.283Z,18.45
2022-11-15T05:44:31.672Z,20.10
2022-11-15T05:45:33.509Z,19.58
2022-11-15T05:46:35.409Z,19.73
2022-11-15T05:47:37.397Z,18.95
2022-11-15T05:49:41.110Z,17.67
2022-11-15T05:50:43.214Z,18.83
2022-11-15T05:51:45.130Z,18.52
2022-11-15T05:52:47.129Z,19.98
2022-11-15T05:54:49.480Z,17.80
2022-11-15T05:55:50.964Z,20.48
2022-11-15T05:56:52.328Z,20.00
2022-11-15T05:57:53.250Z,20.75
2022-11-15T05:58:59.494Z,20.20
2022-11-15T06:00:01.416Z,20.55
2022-11-15T06:01:02.564Z,19.50
2022-11-15T06:02:03.458Z,19.30
2022-11-15T06:03:04.738Z,18.90
2022-11-15T06:04:05.788Z,19.73
2022-11-15T06:05:07.012Z,18.70
2022-11-15T06:06:12.236Z,19.25
2022-11-15T06:07:16.425Z,20.48
2022-11-15T06:08:18.031Z,19.67
2022-11-15T06:09:19.822Z,19.67
2022-11-15T06:10:20.973Z,19.98
2022-11-15T06:11:21.820Z,17.17
2022-11-15T06:12:23.217Z,19.90
2022-11-15T06:13:24.109Z,19.45
2022-11-15T06:14:25.280Z,20.05
2022-11-15T06:15:26.123Z,17.90
2022-11-15T06:16:27.266Z,18.43
2022-11-15T06:17:28.096Z,17.05
2022-11-15T06:18:29.294Z,18.17
2022-11-15T06:19:33.134Z,17.30
2022-11-15T06:20:34.317Z,15.80
2022-11-15T06:21:35.255Z,16.45
2022-11-15T06:22:36.413Z,16.57
2022-11-15T06:23:37.947Z,15.68
2022-11-15T06:24:39.155Z,16.05
2022-11-15T06:25:40.088Z,14.88
2022-11-15T06:26:41.302Z,14.40
2022-11-15T06:27:42.163Z,14.93
2022-11-15T06:28:43.343Z,13.10
2022-11-15T06:29:44.176Z,13.73
2022-11-15T06:30:49.132Z,13.68
2022-11-15T06:31:53.353Z,15.68
2022-11-15T06:32:59.021Z,14.10
2022-11-15T06:34:00.186Z,15.07
2022-11-15T06:35:01.020Z,14.57
2022-11-15T06:36:02.372Z,13.57
2022-11-15T06:37:03.248Z,14.32
2022-11-15T06:38:05.265Z,14.07
2022-11-15T06:40:09.407Z,11.73
2022-11-15T06:41:11.260Z,13.68
2022-11-15T06:42:12.450Z,14.52
2022-11-15T06:43:14.845Z,15.13
2022-11-15T06:44:16.749Z,13.55
2022-11-15T06:45:17.566Z,14.98
2022-11-15T06:46:18.756Z,14.02
2022-11-15T06:47:19.593Z,14.75
2022-11-15T06:48:20.773Z,15.77
2022-11-15T06:49:22.195Z,14.38
2022-11-15T06:50:23.468Z,14.57
2022-11-15T06:51:24.312Z,15.30
2022-11-15T06:52:25.484Z,13.90
2022-11-15T06:53:26.846Z,13.57
2022-11-15T06:54:28.013Z,13.63
2022-11-15T06:55:29.526Z,12.25
2022-11-15T06:56:30.668Z,13.40
2022-11-15T06:57:32.539Z,12.65
2022-11-15T06:58:33.848Z,12.25
2022-11-15T06:59:40.209Z,25.77
2022-11-15T07:00:41.968Z,15.63
2022-11-15T07:01:43.170Z,15.13
2022-11-15T07:02:44.365Z,13.65
2022-11-15T07:03:46.480Z,12.35
2022-11-15T07:04:47.372Z,13.95
2022-11-15T07:05:53.765Z,10.90
2022-11-15T07:06:54.668Z,11.40
2022-11-15T07:07:56.468Z,12.47
2022-11-15T07:08:57.329Z,12.23
2022-11-15T07:09:58.526Z,11.43
2022-11-15T07:11:00.731Z,11.05
2022-11-15T07:12:07.314Z,11.27
2022-11-15T07:13:08.624Z,12.55
2022-11-15T07:14:09.809Z,11.30
2022-11-15T07:15:10.690Z,11.15
2022-11-15T07:16:11.971Z,11.75
2022-11-15T07:17:12.808Z,10.95
2022-11-15T07:18:13.949Z,12.30
2022-11-15T07:19:14.821Z,12.68
2022-11-15T07:20:16.293Z,12.35
2022-11-15T07:21:17.464Z,12.65
2022-11-15T07:22:18.312Z,13.98
2022-11-15T07:23:19.469Z,14.35
2022-11-15T07:24:20.364Z,15.23
2022-11-15T07:25:21.545Z,13.93
2022-11-15T07:26:23.477Z,14.65
2022-11-15T07:27:24.336Z,15.15
2022-11-15T07:28:25.828Z,15.23
2022-11-15T07:29:26.838Z,15.90
2022-11-15T07:30:28.536Z,15.20
2022-11-15T07:31:29.420Z,17.20
2022-11-15T07:32:31.402Z,17.63
2022-11-15T07:34:33.614Z,18.13
2022-11-15T07:35:34.468Z,19.88
2022-11-15T07:36:35.594Z,20.00
2022-11-15T07:37:36.414Z,19.75
2022-11-15T07:38:42.520Z,17.50
2022-11-15T07:39:44.138Z,20.13
2022-11-15T07:40:45.062Z,20.42
2022-11-15T07:41:48.429Z,19.60
2022-11-15T07:42:56.123Z,22.75
2022-11-15T07:43:57.826Z,21.20
2022-11-15T07:44:58.683Z,28.92
2022-11-15T07:46:00.170Z,20.52
2022-11-15T07:47:01.000Z,20.52
2022-11-15T07:48:02.350Z,20.88
2022-11-15T07:49:03.644Z,21.80
2022-11-15T07:50:04.937Z,32.35
2022-11-15T07:51:09.910Z,29.77
2022-11-15T07:52:14.168Z,23.05
2022-11-15T07:53:15.038Z,25.73
2022-11-15T07:54:16.184Z,23.75
2022-11-15T07:55:17.330Z,31.25
2022-11-15T07:56:18.282Z,28.50
2022-11-15T07:57:20.193Z,21.00
2022-11-15T07:58:21.022Z,24.27
2022-11-15T07:59:22.182Z,23.40
2022-11-15T08:00:23.101Z,22.17
2022-11-15T08:01:25.397Z,21.35
2022-11-15T08:02:30.291Z,20.67
2022-11-15T08:03:32.681Z,18.52
2022-11-15T08:04:33.801Z,20.67
2022-11-15T08:05:36.251Z,20.70
2022-11-15T08:06:37.400Z,19.45
2022-11-15T08:07:39.042Z,20.98
2022-11-15T08:08:39.871Z,20.90
2022-11-15T08:09:41.194Z,20.02
2022-11-15T08:10:42.350Z,21.40
2022-11-15T08:11:43.192Z,21.65
2022-11-15T08:12:45.072Z,20.60
2022-11-15T08:13:46.322Z,21.08
2022-11-15T08:14:47.549Z,21.52
2022-11-15T08:15:51.168Z,22.02
2022-11-15T08:16:55.798Z,21.08
2022-11-15T08:17:57.282Z,20.00
2022-11-15T08:18:58.432Z,21.50
2022-11-15T08:19:59.273Z,21.77
2022-11-15T08:21:00.688Z,20.58
2022-11-15T08:22:01.578Z,20.85
2022-11-15T08:23:04.158Z,20.30
2022-11-15T08:24:05.413Z,18.13
2022-11-15T08:25:06.916Z,18.25
2022-11-15T08:26:09.201Z,20.23
2022-11-15T08:27:15.078Z,20.15
2022-11-15T08:28:17.668Z,19.65
2022-11-15T08:29:18.555Z,19.42
2022-11-15T08:30:19.729Z,20.03
2022-11-15T08:31:20.893Z,19.73
2022-11-15T08:32:21.803Z,21.00
2022-11-15T08:33:22.944Z,20.53
2022-11-15T08:34:23.832Z,19.27
2022-11-15T08:35:28.990Z,20.38
2022-11-15T08:36:36.880Z,20.42
2022-11-15T08:37:42.934Z,18.02
2022-11-15T08:38:44.161Z,21.33
2022-11-15T08:39:45.325Z,17.40
2022-11-15T08:40:46.164Z,20.58
2022-11-15T08:41:47.349Z,20.00
2022-11-15T08:42:48.425Z,19.40
2022-11-15T08:43:50.281Z,19.40
2022-11-15T08:44:51.439Z,21.45
2022-11-15T08:45:52.265Z,20.02
2022-11-15T08:46:53.406Z,20.77
2022-11-15T08:47:54.880Z,21.60
2022-11-15T08:48:56.099Z,16.73
2022-11-15T08:49:56.998Z,19.23
2022-11-15T08:50:58.341Z,18.63
2022-11-15T08:51:59.173Z,17.60
2022-11-15T08:53:04.916Z,16.50
2022-11-15T08:54:06.201Z,16.55
2022-11-15T08:55:07.921Z,17.27
2022-11-15T08:56:09.961Z,19.23
2022-11-15T08:58:11.819Z,15.95
2022-11-15T08:59:13.607Z,19.55
2022-11-15T09:00:15.001Z,18.85
2022-11-15T09:01:18.726Z,20.20
2022-11-15T09:02:20.104Z,19.05
2022-11-15T09:03:21.443Z,20.17
2022-11-15T09:04:22.579Z,19.40
2022-11-15T09:05:23.420Z,19.13
2022-11-15T09:06:24.573Z,19.80
2022-11-15T09:07:25.753Z,20.92
2022-11-15T09:08:47.819Z,16.45
2022-11-15T09:09:49.486Z,18.23
2022-11-15T09:10:50.373Z,16.35
2022-11-15T09:11:51.558Z,19.35
2022-11-15T09:12:52.453Z,17.23
2022-11-15T09:13:53.646Z,18.45
2022-11-15T09:14:55.435Z,18.35
2022-11-15T09:15:57.720Z,18.35
2022-11-15T09:16:58.903Z,19.52
2022-11-15T09:18:00.044Z,23.85
2022-11-15T09:19:01.362Z,26.15
2022-11-15T09:20:02.405Z,20.77
2022-11-15T09:21:03.939Z,17.85
2022-11-15T09:22:06.183Z,15.30
2022-11-15T09:23:07.034Z,17.58
2022-11-15T09:24:08.934Z,18.23
2022-11-15T09:25:11.236Z,17.77
2022-11-15T09:26:13.345Z,18.63
2022-11-15T09:28:15.151Z,18.40
2022-11-15T09:29:16.399Z,17.85
2022-11-15T09:30:18.061Z,19.02
2022-11-15T09:31:22.209Z,16.50
2022-11-15T09:32:23.564Z,19.23
2022-11-15T09:33:25.005Z,19.00
2022-11-15T09:34:26.678Z,18.05
2022-11-15T09:35:27.506Z,18.83
2022-11-15T09:36:29.009Z,14.47
2022-11-15T09:37:31.849Z,17.02
2022-11-15T09:38:33.407Z,17.13
2022-11-15T09:39:35.214Z,17.60
2022-11-15T09:40:36.877Z,16.42
2022-11-15T09:41:42.825Z,17.40
2022-11-15T09:42:58.939Z,16.75
2022-11-15T09:44:04.667Z,16.52
2022-11-15T09:45:11.605Z,17.23
2022-11-15T09:46:15.891Z,18.02
2022-11-15T09:47:30.041Z,15.77
2022-11-15T09:48:38.751Z,17.55
2022-11-15T09:49:39.879Z,17.73
2022-11-15T09:50:44.062Z,16.75
2022-11-15T09:51:49.008Z,17.23
2022-11-15T09:52:49.841Z,17.52
2022-11-15T09:55:21.489Z,16.63
2022-11-15T09:56:23.673Z,17.35
2022-11-15T09:57:30.638Z,17.45
2022-11-15T09:58:35.574Z,17.80
2022-11-15T09:59:47.831Z,16.08
2022-11-15T10:00:52.449Z,18.20
2022-11-15T10:01:57.776Z,19.15
2022-11-15T10:03:10.151Z,17.73
2022-11-15T10:04:12.086Z,17.38
2022-11-15T10:05:15.076Z,18.65
2022-11-15T10:06:22.377Z,18.33
2022-11-15T10:07:26.431Z,19.05
2022-11-15T10:08:49.635Z,19.48
2022-11-15T10:09:53.881Z,16.90
2022-11-15T10:11:15.759Z,18.67
2022-11-15T10:12:18.052Z,16.95
2022-11-15T10:13:22.997Z,18.08
2022-11-15T10:14:25.074Z,17.92
2022-11-15T10:15:26.156Z,18.67
2022-11-15T10:16:34.711Z,17.52
2022-11-15T10:17:45.214Z,18.40
2022-11-15T10:18:52.624Z,18.17
2022-11-15T10:20:02.392Z,17.83
2022-11-15T10:21:14.142Z,17.38
2022-11-15T10:22:27.027Z,17.13
2022-11-15T10:23:28.697Z,17.77
2022-11-15T10:24:34.524Z,16.77
2022-11-15T10:25:36.012Z,18.23
2022-11-15T10:26:36.836Z,17.25
2022-11-15T10:27:39.111Z,17.40
2022-11-15T10:28:40.549Z,18.20
2022-11-15T10:29:45.582Z,18.80
2022-11-15T10:30:47.367Z,19.27
2022-11-15T10:31:48.537Z,17.60
2022-11-15T10:32:50.433Z,18.40
2022-11-15T10:34:52.579Z,18.35
2022-11-15T10:36:12.474Z,17.60
2022-11-15T10:37:13.633Z,17.85
2022-11-15T10:38:14.455Z,19.25
2022-11-15T10:39:15.573Z,17.63
2022-11-15T10:40:18.093Z,19.05
2022-11-15T10:41:20.006Z,19.58
2022-11-15T10:42:26.500Z,19.42
2022-11-15T10:43:27.637Z,18.58
2022-11-15T10:44:29.601Z,18.65
2022-11-15T10:46:46.279Z,19.17
2022-11-15T10:47:48.499Z,18.90
2022-11-15T10:48:50.347Z,17.85
2022-11-15T10:49:55.433Z,19.48
2022-11-15T10:50:56.704Z,20.63
2022-11-15T10:51:59.771Z,20.13
2022-11-15T10:53:02.820Z,20.08
2022-11-15T10:54:11.794Z,18.83
2022-11-15T10:55:25.561Z,20.55
2022-11-15T10:57:28.828Z,21.75
2022-11-15T10:58:35.146Z,21.83
2022-11-15T10:59:39.165Z,19.67
2022-11-15T11:00:40.633Z,19.98
2022-11-15T11:01:46.290Z,20.30
2022-11-15T11:02:56.863Z,20.60
2022-11-15T11:04:00.120Z,20.73
2022-11-15T11:05:02.024Z,20.45
2022-11-15T11:06:04.236Z,20.77
2022-11-15T11:07:20.398Z,21.40
2022-11-15T11:08:23.171Z,20.35
2022-11-15T11:09:29.586Z,20.23
2022-11-15T11:11:53.140Z,20.73
2022-11-15T11:12:54.417Z,21.45
2022-11-15T11:13:55.765Z,22.60
2022-11-15T11:14:56.634Z,20.83
2022-11-15T11:16:07.129Z,18.87
2022-11-15T11:17:13.865Z,21.30
2022-11-15T11:18:19.856Z,19.27
2022-11-15T11:19:36.134Z,19.50
2022-11-15T11:20:38.896Z,20.23
2022-11-15T11:21:46.573Z,20.98
2022-11-15T11:22:58.972Z,22.58
2022-11-15T11:24:03.969Z,21.67
2022-11-15T11:25:11.277Z,22.58
2022-11-15T11:26:19.132Z,20.58
2022-11-15T11:27:26.677Z,21.45
2022-11-15T11:28:33.740Z,20.73
2022-11-15T11:29:41.210Z,20.98
2022-11-15T11:30:48.442Z,20.92
2022-11-15T11:31:52.974Z,21.23
2022-11-15T11:33:00.957Z,19.13
2022-11-15T11:34:05.500Z,21.83
2022-11-15T11:35:11.897Z,22.13
2022-11-15T11:36:21.522Z,21.15
2022-11-15T11:37:29.695Z,21.00
2022-11-15T11:38:35.292Z,21.10
2022-11-15T11:39:42.615Z,22.65
2022-11-15T11:40:45.589Z,20.92
2022-11-15T11:41:51.872Z,23.02
2022-11-15T11:42:59.430Z,22.08
2022-11-15T11:44:06.812Z,21.17
2022-11-15T11:45:16.146Z,20.33
2022-11-15T11:46:25.203Z,21.08
2022-11-15T11:47:31.394Z,21.33
2022-11-15T11:48:40.414Z,21.70
2022-11-15T11:49:45.045Z,22.45
2022-11-15T11:50:47.471Z,21.02
2022-11-15T11:51:51.997Z,21.77
2022-11-15T11:53:00.903Z,20.38
2022-11-15T11:54:06.344Z,21.98
2022-11-15T11:55:13.590Z,20.02
2022-11-15T11:56:17.685Z,21.05
2022-11-15T11:57:25.140Z,22.10
2022-11-15T11:58:28.705Z,21.58
2022-11-15T11:59:34.437Z,22.73
2022-11-15T12:00:38.766Z,21.48
2022-11-15T12:01:42.173Z,22.55
2022-11-15T12:02:45.737Z,22.70
2022-11-15T12:03:48.396Z,21.10
2022-11-15T12:04:51.395Z,22.98
2022-11-15T12:05:55.005Z,22.55
2022-11-15T12:07:00.336Z,22.05
2022-11-15T12:08:05.528Z,21.75
2022-11-15T12:09:13.132Z,22.70
2022-11-15T12:10:21.632Z,28.27
2022-11-15T12:11:24.393Z,27.13
2022-11-15T12:12:30.641Z,28.38
2022-11-15T12:13:36.871Z,27.42
2022-11-15T12:14:41.312Z,27.75
2022-11-15T12:15:44.062Z,25.13
2022-11-15T12:16:44.891Z,25.05
2022-11-15T12:17:47.261Z,23.80
2022-11-15T12:18:49.690Z,21.95
2022-11-15T12:19:51.934Z,24.08
2022-11-15T12:20:56.061Z,23.02
2022-11-15T12:22:00.273Z,22.55
2022-11-15T12:23:04.309Z,22.23
2022-11-15T12:24:07.072Z,23.80
2022-11-15T12:25:14.699Z,21.77
2022-11-15T12:26:17.630Z,22.58
2022-11-15T12:27:26.281Z,21.83
2022-11-15T12:28:33.305Z,21.65
2022-11-15T12:29:37.378Z,21.38
2022-11-15T12:30:42.665Z,20.58
2022-11-15T12:31:45.058Z,21.75
2022-11-15T12:32:50.839Z,21.52
2022-11-15T12:33:55.440Z,21.67
2022-11-15T12:34:57.505Z,21.67
2022-11-15T12:35:59.954Z,22.10
2022-11-15T12:37:01.144Z,21.80
2022-11-15T12:38:02.609Z,20.95
2022-11-15T12:39:04.182Z,22.27
2022-11-15T12:40:20.239Z,21.17
2022-11-15T12:41:22.469Z,21.23
2022-11-15T12:42:37.128Z,21.90
2022-11-15T12:43:42.547Z,21.42
2022-11-15T12:44:59.654Z,21.67
2022-11-15T12:46:03.479Z,21.05
2022-11-15T12:47:05.537Z,21.75
2022-11-15T12:48:27.378Z,20.10
2022-11-15T12:49:44.889Z,21.33
2022-11-15T12:50:56.245Z,20.30
2022-11-15T12:52:08.613Z,19.85
2022-11-15T12:53:28.797Z,22.67
2022-11-15T12:54:48.743Z,20.45
2022-11-15T12:56:08.989Z,20.50
2022-11-15T12:57:24.264Z,19.10
2022-11-15T12:58:29.975Z,20.95
2022-11-15T12:59:46.270Z,20.25
2022-11-15T13:00:47.414Z,20.13
2022-11-15T13:01:57.658Z,21.30
2022-11-15T13:03:17.151Z,21.25
2022-11-15T13:04:26.453Z,19.83
2022-11-15T13:05:45.970Z,21.02
2022-11-15T13:06:48.048Z,21.80
2022-11-15T13:07:57.485Z,20.42
2022-11-15T13:08:58.690Z,21.40
2022-11-15T13:09:59.879Z,19.77
2022-11-15T13:11:29.365Z,21.08
2022-11-15T13:12:50.392Z,20.42
2022-11-15T13:13:51.500Z,19.83
2022-11-15T13:14:52.730Z,20.55
2022-11-15T13:15:57.182Z,20.27
2022-11-15T13:16:58.832Z,21.08
2022-11-15T13:18:19.997Z,21.90
2022-11-15T13:19:23.612Z,22.58
2022-11-15T13:20:26.905Z,21.02
2022-11-15T13:21:46.174Z,19.42
2022-11-15T13:22:50.953Z,21.90
2022-11-15T13:23:53.105Z,19.98
2022-11-15T13:24:54.406Z,21.45
2022-11-15T13:26:09.474Z,21.60
2022-11-15T13:27:11.954Z,20.75
2022-11-15T13:28:20.328Z,20.10
2022-11-15T13:29:21.503Z,21.40
2022-11-15T13:30:23.286Z,21.48
2022-11-15T13:31:26.593Z,21.42
2022-11-15T13:32:27.740Z,22.35
2022-11-15T13:33:35.770Z,21.90
2022-11-15T13:34:51.565Z,22.08
2022-11-15T13:35:54.764Z,21.13
2022-11-15T13:36:56.015Z,21.60
2022-11-15T13:37:58.058Z,20.40
2022-11-15T13:40:18.649Z,20.67
2022-11-15T13:41:20.764Z,21.88
2022-11-15T13:42:22.045Z,21.30
2022-11-15T13:43:35.202Z,21.63
2022-11-15T13:44:36.386Z,22.80
2022-11-15T13:45:37.223Z,22.95
2022-11-15T13:46:38.336Z,20.93
2022-11-15T13:47:39.192Z,22.50
2022-11-15T13:48:41.173Z,22.73
2022-11-15T13:50:43.883Z,20.83
2022-11-15T13:51:46.485Z,21.52
2022-11-15T13:52:49.209Z,21.88
2022-11-15T13:53:52.219Z,21.80
2022-11-15T13:54:57.552Z,22.17
2022-11-15T13:55:58.708Z,23.23
2022-11-15T13:57:02.187Z,23.25
2022-11-15T13:58:06.233Z,23.30
2022-11-15T13:59:14.175Z,22.67
2022-11-15T14:00:36.372Z,22.08
2022-11-15T14:01:37.722Z,22.98